Clarksville, TN (37043)

8:58 PM CST on November 17, 2017 (GMT -0600)
Parkvue Village | | Change Station
Active Advisory: Wind Advisory

Elev 577 ft 36.50 °N, 87.27 °W | Updated 47 seconds ago

Partly Cloudy
Partly Cloudy
61.1 °F
Feels Like 61.1 °F
N
11.0
Wind Variable Wind from North

Today
High -- | Low -- °F
--% Chance of Precip.
Yesterday
High -- | Low -- °F
Precip. -- in
Pressure 29.85 in
Visibility 10.0 miles
Clouds Scattered Clouds 17000 ft
Dew Point 40 °F
Humidity 46%
Rainfall Not available.
Snow Depth Not available.
6:28 AM 4:38 PM
Waning Crescent, 0% visible
METAR KHOP 180158Z AUTO 16010KT 10SM SCT170 16/01 A2984 RMK AO2 SLP108 T01630006
Pressure 29.85 in
Visibility 10.0 miles
Clouds Scattered Clouds 17000 ft
Dew Point 40 °F
Humidity 46%
Rainfall Not available.
Snow Depth Not available.
6:28 AM 4:38 PM
Waning Crescent, 0% visible
METAR KHOP 180158Z AUTO 16010KT 10SM SCT170 16/01 A2984 RMK AO2 SLP108 T01630006

Get Your Daily Forecast Email!

Thanks for signing up!

Be on the lookout for a verification email in your inbox.

You'll start receiving severe weather alerts in your inbox..

×

10-Day Weather Forecast

Almanac

Astronomy

Nov. 17, 2017 Rise Set
Actual Time
Civil Twilight
Nautical Twilight
Astronomical Twilight
Moon
Length of Visible Light
Length of Day
Tomorrow will be .
, % of the Moon is Illuminated

Today's Extremes

State Highs State Lows

Community

WunderPhotos

Category 6

Welcome to Category 6. This is the collective home for Weather Underground's featured writeups by Dr. Jeff Masters (right), Bob Henson (left), Chris Burt, and other regular contributors.

Nearby

Air Quality

  Air Quality AQ Index Pollutant
Not available.

Snow Depth

Station Depth Elevation

Earthquake Activity

City Distance Mag. Time & Date
Minimum magnitude displayed is 2.5.

Coastal Water Temperatures

Place Temperature

Stations

Nearby Weather Stations

Station Location Temp. Windchill Dew Point Humidity Wind Precip. Elev Updated Type
                   

Watches & Warnings

Wind Advisory
Issued: 2:50 PM CST Nov. 17, 2017 – National Weather Service

... Wind Advisory in effect from 6 am to 9 PM CST Saturday...

The National Weather Service in Nashville has issued a Wind
Advisory, which is in effect from 6 am to 9 PM CST Saturday.

* Timing... windy conditions will develop Saturday morning and
persist into the evening.

* Winds... sustained speeds of 20 to 30 mph with gusts as high as
45 mph.

* Impacts... minor wind damage is possible along with impaired
driving conditions.

Precautionary/preparedness actions...

A Wind Advisory means that winds over 40 mph are expected. Winds
this strong may blow down a few trees or tree limbs and cause
isolated power outages. Driving may also become difficult...
especially for high profile vehicles. Use extra caution.